Terminal Aerodrome Forecast
Issued by NWS Charleston, SC

Home | Current Version | Previous Version | Text Only | Print | Product List | Glossary On
Versions: 1 2 3 4 5 6 7 8 9 10 11 12 13 14 15 16 17 18 19 20
000
FTUS42 KCHS 010536
TAFSAV
TAF
KSAV 010536Z 0106/0206 03009KT P6SM -RA OVC015
     FM011000 03009KT 6SM -RA BR OVC008
     FM011500 36006KT 5SM -DZ BR OVC006
     FM020000 36003KT 3SM BR OVC003=

USA.gov is the U.S. government's official web portal to all federal, state and local government web resources and services.